CheckWX is a tool to help pilots better visualize weather data.  It is not intended as a substitute for an official pre-flight weather briefing.

15:07:42 UTC

KLEX TAF
Blue Grass Airport
Lexington, Kentucky, USA
KLEX 231120Z 2312/2412 VRB03KT P6SM SKC FM231900 22004KT P6SM FEW200

Mar-23@
12:00 UTC

Mar-23 @ 12:00 UTC

Mar-23@
19:00 UTC

Mar-23 @ 19:00 UTC

KLEX 231120Z 2312/2412 VRB03KT P6SM SKC
Wind
  • Variable at 3 KTS
Cloud Levels
  • Clear skies

Mar-23@
19:00 UTC

Mar-23 @ 19:00 UTC

Mar-24@
12:00 UTC

Mar-24 @ 12:00 UTC

FM231900 22004KT P6SM FEW200

From

From Standard forecast or significant change

Wind
  • 220° at 4 KTS
Cloud Levels
  • Few at 20,000' AGL